createdAt,value
2018-10-11T00:00:32.547Z,24.28
2018-10-11T00:01:33.344Z,24.25
2018-10-11T00:02:32.549Z,24.25
2018-10-11T00:03:32.520Z,24.32
2018-10-11T00:04:32.512Z,24.34
2018-10-11T00:05:32.496Z,24.27
2018-10-11T00:06:33.343Z,24.32
2018-10-11T00:07:32.859Z,24.28
2018-10-11T00:08:32.458Z,24.32
2018-10-11T00:09:33.345Z,24.31
2018-10-11T00:10:32.442Z,24.28
2018-10-11T00:11:33.342Z,24.25
2018-10-11T00:12:32.855Z,24.34
2018-10-11T00:13:32.405Z,24.31
2018-10-11T00:14:32.394Z,24.27
2018-10-11T00:15:32.394Z,24.31
2018-10-11T00:16:33.341Z,24.31
2018-10-11T00:17:32.376Z,24.27
2018-10-11T00:18:32.351Z,24.35
2018-10-11T00:19:32.845Z,24.32
2018-10-11T00:20:32.846Z,24.28
2018-10-11T00:21:32.322Z,24.28
2018-10-11T00:22:32.328Z,24.28
2018-10-11T00:23:32.302Z,24.25
2018-10-11T00:24:32.291Z,24.32
2018-10-11T00:25:32.277Z,24.35
2018-10-11T00:26:32.267Z,24.34
2018-10-11T00:27:32.363Z,24.32
2018-10-11T00:28:32.254Z,24.37
2018-10-11T00:29:32.851Z,24.40
2018-10-11T00:30:32.860Z,24.22
2018-10-11T00:31:32.218Z,24.22
2018-10-11T00:32:32.353Z,24.28
2018-10-11T00:33:32.202Z,24.28
2018-10-11T00:34:32.844Z,24.34
2018-10-11T00:35:32.171Z,24.37
2018-10-11T00:36:32.845Z,24.32
2018-10-11T00:37:32.359Z,24.22
2018-10-11T00:38:32.145Z,24.32
2018-10-11T00:39:32.140Z,24.25
2018-10-11T00:40:32.845Z,24.37
2018-10-11T00:41:32.104Z,24.39
2018-10-11T00:42:32.114Z,24.32
2018-10-11T00:43:32.085Z,24.34
2018-10-11T00:44:32.855Z,24.39
2018-10-11T00:45:32.064Z,24.35
2018-10-11T00:46:32.054Z,24.32
2018-10-11T00:47:32.070Z,24.34
2018-10-11T00:48:32.846Z,24.34
2018-10-11T00:49:32.111Z,24.32
2018-10-11T00:50:32.011Z,24.27
2018-10-11T00:51:31.996Z,24.32
2018-10-11T00:52:32.049Z,24.25
2018-10-11T00:53:32.846Z,24.25
2018-10-11T00:54:31.976Z,24.30
2018-10-11T00:55:31.968Z,24.25
2018-10-11T00:56:31.997Z,24.31
2018-10-11T00:57:31.955Z,24.34
2018-10-11T00:58:31.925Z,24.22
2018-10-11T00:59:32.845Z,24.28
2018-10-11T01:00:31.899Z,24.25
2018-10-11T01:01:32.863Z,24.30
2018-10-11T01:02:32.360Z,24.31
2018-10-11T01:03:31.881Z,24.24
2018-10-11T01:04:31.861Z,24.28
2018-10-11T01:05:31.852Z,24.32
2018-10-11T01:06:31.887Z,24.22
2018-10-11T01:07:31.845Z,24.30
2018-10-11T01:08:31.821Z,24.34
2018-10-11T01:09:32.449Z,24.34
2018-10-11T01:10:31.798Z,24.24
2018-10-11T01:11:31.806Z,24.31
2018-10-11T01:12:31.952Z,24.32
2018-10-11T01:13:31.771Z,24.28
2018-10-11T01:14:31.761Z,24.25
2018-10-11T01:15:31.763Z,24.31
2018-10-11T01:16:31.741Z,24.35
2018-10-11T01:17:31.760Z,24.27
2018-10-11T01:18:31.709Z,24.31
2018-10-11T01:19:32.346Z,24.25
2018-10-11T01:20:31.688Z,24.27
2018-10-11T01:21:31.693Z,24.24
2018-10-11T01:22:32.347Z,24.31
2018-10-11T01:23:31.884Z,24.27
2018-10-11T01:24:31.655Z,24.27
2018-10-11T01:25:32.348Z,24.32
2018-10-11T01:26:31.633Z,24.24
2018-10-11T01:27:31.619Z,24.22
2018-10-11T01:28:31.873Z,24.37
2018-10-11T01:29:32.361Z,24.20
2018-10-11T01:30:31.579Z,24.30
2018-10-11T01:31:31.570Z,24.28
2018-10-11T01:32:31.562Z,24.27
2018-10-11T01:33:31.872Z,24.28
2018-10-11T01:34:31.573Z,24.30
2018-10-11T01:35:31.524Z,24.30
2018-10-11T01:36:32.349Z,24.27
2018-10-11T01:37:31.506Z,24.30
2018-10-11T01:38:31.550Z,24.31
2018-10-11T01:39:32.353Z,24.27
2018-10-11T01:40:32.343Z,24.28
2018-10-11T01:41:31.470Z,24.32
2018-10-11T01:42:32.356Z,24.25
2018-10-11T01:43:31.458Z,24.30
2018-10-11T01:44:31.456Z,24.25
2018-10-11T01:45:32.378Z,24.34
2018-10-11T01:46:32.356Z,24.31
2018-10-11T01:47:32.358Z,24.27
2018-10-11T01:48:31.400Z,24.27
2018-10-11T01:49:31.382Z,24.28
2018-10-11T01:50:31.365Z,24.27
2018-10-11T01:51:31.356Z,24.27
2018-10-11T01:52:31.350Z,24.27
2018-10-11T01:53:31.878Z,24.21
2018-10-11T01:54:31.846Z,24.34
2018-10-11T01:55:31.849Z,24.35
2018-10-11T01:56:31.309Z,24.28
2018-10-11T01:57:31.326Z,24.20
2018-10-11T01:58:31.300Z,24.27
2018-10-11T01:59:31.275Z,24.18
2018-10-11T02:00:31.264Z,24.15
2018-10-11T02:01:31.249Z,24.20
2018-10-11T02:02:31.300Z,24.15
2018-10-11T02:03:31.239Z,24.31
2018-10-11T02:04:31.852Z,24.27
2018-10-11T02:05:31.858Z,24.21
2018-10-11T02:06:31.861Z,24.22
2018-10-11T02:07:31.854Z,24.28
2018-10-11T02:08:31.186Z,24.37
2018-10-11T02:09:31.952Z,24.30
2018-10-11T02:10:31.153Z,24.34
2018-10-11T02:11:31.891Z,24.30
2018-10-11T02:12:31.852Z,24.30
2018-10-11T02:13:31.135Z,24.24
2018-10-11T02:14:31.145Z,24.31
2018-10-11T02:15:31.115Z,24.25
2018-10-11T02:16:31.847Z,24.27
2018-10-11T02:17:31.853Z,24.22
2018-10-11T02:18:31.385Z,24.25
2018-10-11T02:19:31.069Z,24.30
2018-10-11T02:20:31.849Z,24.21
2018-10-11T02:21:31.033Z,24.30
2018-10-11T02:22:32.011Z,24.24
2018-10-11T02:23:31.030Z,24.22
2018-10-11T02:24:31.029Z,24.34
2018-10-11T02:25:30.991Z,24.22
2018-10-11T02:26:31.848Z,24.22
2018-10-11T02:27:31.865Z,24.16
2018-10-11T02:28:31.359Z,24.27
2018-10-11T02:29:30.951Z,24.30
2018-10-11T02:30:31.865Z,24.30
2018-10-11T02:31:30.936Z,24.30
2018-10-11T02:32:31.857Z,24.28
2018-10-11T02:33:30.935Z,24.24
2018-10-11T02:34:31.846Z,24.21
2018-10-11T02:35:31.850Z,24.25
2018-10-11T02:36:31.869Z,24.21
2018-10-11T02:37:30.876Z,24.27
2018-10-11T02:38:31.364Z,24.30
2018-10-11T02:39:30.845Z,24.25
2018-10-11T02:40:30.834Z,24.24
2018-10-11T02:41:30.825Z,24.25
2018-10-11T02:42:30.822Z,24.28
2018-10-11T02:43:30.886Z,24.28
2018-10-11T02:44:30.786Z,24.27
2018-10-11T02:45:30.777Z,24.28
2018-10-11T02:46:31.350Z,24.21
2018-10-11T02:47:31.350Z,24.21
2018-10-11T02:48:30.773Z,24.25
2018-10-11T02:49:31.350Z,24.21
2018-10-11T02:50:30.722Z,24.24
2018-10-11T02:51:30.720Z,24.27
2018-10-11T02:52:31.368Z,24.27
2018-10-11T02:53:30.886Z,24.20
2018-10-11T02:54:30.681Z,24.21
2018-10-11T02:55:30.669Z,24.16
2018-10-11T02:56:30.665Z,24.28
2018-10-11T02:57:30.645Z,24.25
2018-10-11T02:58:30.677Z,24.21
2018-10-11T02:59:30.627Z,24.24
2018-10-11T03:00:30.616Z,24.22
2018-10-11T03:01:30.610Z,24.24
2018-10-11T03:02:31.349Z,24.27
2018-10-11T03:03:30.883Z,24.18
2018-10-11T03:04:30.612Z,24.21
2018-10-11T03:05:31.358Z,24.21
2018-10-11T03:06:30.555Z,24.25
2018-10-11T03:07:30.553Z,24.22
2018-10-11T03:08:30.878Z,24.18
2018-10-11T03:09:31.358Z,24.31
2018-10-11T03:10:31.355Z,24.21
2018-10-11T03:11:31.379Z,24.13
2018-10-11T03:12:31.352Z,24.20
2018-10-11T03:13:30.876Z,24.22
2018-10-11T03:14:30.464Z,24.18
2018-10-11T03:15:31.357Z,24.25
2018-10-11T03:16:30.442Z,24.18
2018-10-11T03:17:30.431Z,24.21
2018-10-11T03:18:30.864Z,24.16
2018-10-11T03:19:31.351Z,24.27
2018-10-11T03:20:30.402Z,24.13
2018-10-11T03:21:31.360Z,24.18
2018-10-11T03:22:30.379Z,24.27
2018-10-11T03:23:30.400Z,24.16
2018-10-11T03:24:30.366Z,24.25
2018-10-11T03:25:30.854Z,24.20
2018-10-11T03:26:30.341Z,24.28
2018-10-11T03:27:30.328Z,24.24
2018-10-11T03:28:30.859Z,24.24
2018-10-11T03:29:30.337Z,24.18
2018-10-11T03:30:30.861Z,24.20
2018-10-11T03:31:30.283Z,24.24
2018-10-11T03:32:30.290Z,24.16
2018-10-11T03:33:30.259Z,24.15
2018-10-11T03:34:30.371Z,24.20
2018-10-11T03:35:30.246Z,24.13
2018-10-11T03:36:30.229Z,24.15
2018-10-11T03:37:30.217Z,24.20
2018-10-11T03:38:30.859Z,24.15
2018-10-11T03:39:30.216Z,24.13
2018-10-11T03:40:30.865Z,24.12
2018-10-11T03:41:30.173Z,24.25
2018-10-11T03:42:30.160Z,24.13
2018-10-11T03:43:30.154Z,24.24
2018-10-11T03:44:30.172Z,24.20
2018-10-11T03:45:30.138Z,24.18
2018-10-11T03:46:30.131Z,24.18
2018-10-11T03:47:30.854Z,24.21
2018-10-11T03:48:30.854Z,24.22
2018-10-11T03:49:30.105Z,24.21
2018-10-11T03:50:30.071Z,24.25
2018-10-11T03:51:30.860Z,24.16
2018-10-11T03:52:30.071Z,24.12
2018-10-11T03:53:30.044Z,24.16
2018-10-11T03:54:30.046Z,24.24
2018-10-11T03:55:30.027Z,24.15
2018-10-11T03:56:30.852Z,24.28
2018-10-11T03:57:30.864Z,24.15
2018-10-11T03:58:29.988Z,24.16
2018-10-11T03:59:30.001Z,24.25
2018-10-11T04:00:29.967Z,24.24
2018-10-11T04:01:30.857Z,24.22
2018-10-11T04:02:29.944Z,24.16
2018-10-11T04:03:30.864Z,24.16
2018-10-11T04:04:30.249Z,24.15
2018-10-11T04:05:29.897Z,24.15
2018-10-11T04:06:29.911Z,24.12
2018-10-11T04:07:29.912Z,24.18
2018-10-11T04:08:30.860Z,24.10
2018-10-11T04:09:29.917Z,24.10
2018-10-11T04:10:30.850Z,24.20
2018-10-11T04:11:30.349Z,24.18
2018-10-11T04:12:30.340Z,24.20
2018-10-11T04:13:30.348Z,24.18
2018-10-11T04:14:29.869Z,24.20
2018-10-11T04:15:29.795Z,24.12
2018-10-11T04:16:29.779Z,24.12
2018-10-11T04:17:29.778Z,24.18
2018-10-11T04:18:30.341Z,24.16
2018-10-11T04:19:29.853Z,24.22
2018-10-11T04:20:30.357Z,24.18
2018-10-11T04:21:29.732Z,24.15
2018-10-11T04:22:29.712Z,24.10
2018-10-11T04:23:29.702Z,24.20
2018-10-11T04:24:29.749Z,24.16
2018-10-11T04:25:30.357Z,24.12
2018-10-11T04:26:29.677Z,24.15
2018-10-11T04:27:29.677Z,24.10
2018-10-11T04:28:29.654Z,24.15
2018-10-11T04:29:30.357Z,24.21
2018-10-11T04:30:30.341Z,24.22
2018-10-11T04:31:29.625Z,24.13
2018-10-11T04:32:30.358Z,24.20
2018-10-11T04:33:29.594Z,24.15
2018-10-11T04:34:29.883Z,24.15
2018-10-11T04:35:29.574Z,24.20
2018-10-11T04:36:30.339Z,24.16
2018-10-11T04:37:29.554Z,24.09
2018-10-11T04:38:29.540Z,24.18
2018-10-11T04:39:29.665Z,24.16
2018-10-11T04:40:29.526Z,24.09
2018-10-11T04:41:29.510Z,24.12
2018-10-11T04:42:29.499Z,24.15
2018-10-11T04:43:30.348Z,24.10
2018-10-11T04:44:29.496Z,24.16
2018-10-11T04:45:29.472Z,24.16
2018-10-11T04:46:30.339Z,24.13
2018-10-11T04:47:29.449Z,24.16
2018-10-11T04:48:30.344Z,24.12
2018-10-11T04:49:29.885Z,24.13
2018-10-11T04:50:30.342Z,24.15
2018-10-11T04:51:29.401Z,24.10
2018-10-11T04:52:29.391Z,24.09
2018-10-11T04:53:29.440Z,24.18
2018-10-11T04:54:29.383Z,24.09
2018-10-11T04:55:29.358Z,24.13
2018-10-11T04:56:30.349Z,24.13
2018-10-11T04:57:29.339Z,24.16
2018-10-11T04:58:29.846Z,24.10
2018-10-11T04:59:29.359Z,24.13
2018-10-11T05:00:29.303Z,24.08
2018-10-11T05:01:29.903Z,24.15
2018-10-11T05:02:29.288Z,24.09
2018-10-11T05:03:29.845Z,24.13
2018-10-11T05:04:29.360Z,24.12
2018-10-11T05:05:29.937Z,24.10
2018-10-11T05:06:29.244Z,24.12
2018-10-11T05:07:29.844Z,24.12
2018-10-11T05:08:29.843Z,24.09
2018-10-11T05:09:29.253Z,24.15
2018-10-11T05:10:29.193Z,24.00
2018-10-11T05:11:29.208Z,24.10
2018-10-11T05:12:29.840Z,24.10
2018-10-11T05:13:29.844Z,24.12
2018-10-11T05:14:29.352Z,24.13
2018-10-11T05:15:29.861Z,24.12
2018-10-11T05:16:29.146Z,24.02
2018-10-11T05:17:29.915Z,24.02
2018-10-11T05:18:29.842Z,24.00
2018-10-11T05:19:29.110Z,24.08
2018-10-11T05:20:29.092Z,24.02
2018-10-11T05:21:29.149Z,24.15
2018-10-11T05:22:29.074Z,24.16
2018-10-11T05:23:29.068Z,24.20
2018-10-11T05:24:29.359Z,24.12
2018-10-11T05:25:29.066Z,24.08
2018-10-11T05:26:29.042Z,23.98
2018-10-11T05:27:29.022Z,24.06
2018-10-11T05:28:29.013Z,24.02
2018-10-11T05:29:29.161Z,23.98
2018-10-11T05:30:28.988Z,24.02
2018-10-11T05:31:29.055Z,24.15
2018-10-11T05:32:28.959Z,24.10
2018-10-11T05:33:29.843Z,24.13
2018-10-11T05:34:28.943Z,24.08
2018-10-11T05:35:28.963Z,24.09
2018-10-11T05:36:29.852Z,24.12
2018-10-11T05:37:29.841Z,24.00
2018-10-11T05:38:29.839Z,23.98
2018-10-11T05:39:28.878Z,24.05
2018-10-11T05:40:29.356Z,24.00
2018-10-11T05:41:29.873Z,24.02
2018-10-11T05:42:28.851Z,23.98
2018-10-11T05:43:29.342Z,24.13
2018-10-11T05:44:29.388Z,24.02
2018-10-11T05:45:28.859Z,24.13
2018-10-11T05:46:28.825Z,24.00
2018-10-11T05:47:28.803Z,24.05
2018-10-11T05:48:29.350Z,24.12
2018-10-11T05:49:29.343Z,24.09
2018-10-11T05:50:28.880Z,24.08
2018-10-11T05:51:29.344Z,24.02
2018-10-11T05:52:29.361Z,23.98
2018-10-11T05:53:29.353Z,23.98
2018-10-11T05:54:29.354Z,24.03
2018-10-11T05:55:28.732Z,24.00
2018-10-11T05:56:28.705Z,23.97
2018-10-11T05:57:28.702Z,23.98
2018-10-11T05:58:28.761Z,23.88
2018-10-11T05:59:28.667Z,23.85
2018-10-11T06:00:28.673Z,23.84
2018-10-11T06:01:28.650Z,23.76
2018-10-11T06:02:28.645Z,23.66
2018-10-11T06:03:29.345Z,23.54
2018-10-11T06:04:28.617Z,23.38
2018-10-11T06:05:28.777Z,23.35
2018-10-11T06:06:28.594Z,23.35
2018-10-11T06:07:28.603Z,23.22
2018-10-11T06:08:28.591Z,23.17
2018-10-11T06:09:29.370Z,23.19
2018-10-11T06:10:28.881Z,23.13
2018-10-11T06:11:29.348Z,23.05
2018-10-11T06:12:28.561Z,23.05
2018-10-11T06:13:28.537Z,23.00
2018-10-11T06:14:28.695Z,22.97
2018-10-11T06:15:28.876Z,22.94
2018-10-11T06:16:28.483Z,22.88
2018-10-11T06:17:28.507Z,22.85
2018-10-11T06:18:29.354Z,22.79
2018-10-11T06:19:29.359Z,22.79
2018-10-11T06:20:28.494Z,22.75
2018-10-11T06:21:29.374Z,22.76
2018-10-11T06:22:28.419Z,22.73
2018-10-11T06:23:28.409Z,22.73
2018-10-11T06:24:28.399Z,22.67
2018-10-11T06:25:28.881Z,22.64
2018-10-11T06:26:28.390Z,22.57
2018-10-11T06:27:28.370Z,22.62
2018-10-11T06:28:28.361Z,22.61
2018-10-11T06:29:28.391Z,22.58
2018-10-11T06:30:28.451Z,22.64
2018-10-11T06:31:28.334Z,22.61
2018-10-11T06:32:28.847Z,22.64
2018-10-11T06:33:28.332Z,22.52
2018-10-11T06:34:28.353Z,22.54
2018-10-11T06:35:28.370Z,22.54
2018-10-11T06:36:28.489Z,22.42
2018-10-11T06:37:28.279Z,22.37
2018-10-11T06:38:28.249Z,22.33
2018-10-11T06:39:28.254Z,22.37
2018-10-11T06:40:28.236Z,22.35
2018-10-11T06:41:28.882Z,22.35
2018-10-11T06:42:29.103Z,22.30
2018-10-11T06:43:28.189Z,22.33
2018-10-11T06:44:28.181Z,22.31
2018-10-11T06:45:28.982Z,22.35
2018-10-11T06:46:28.877Z,22.35
2018-10-11T06:47:28.171Z,22.35
2018-10-11T06:48:28.142Z,22.35
2018-10-11T06:49:28.876Z,22.40
2018-10-11T06:50:29.097Z,22.37
2018-10-11T06:51:28.112Z,22.36
2018-10-11T06:52:28.090Z,22.36
2018-10-11T06:53:28.856Z,22.36
2018-10-11T06:54:28.872Z,22.28
2018-10-11T06:55:28.098Z,22.21
2018-10-11T06:56:28.161Z,22.22
2018-10-11T06:57:28.871Z,22.25
2018-10-11T06:58:28.861Z,22.24
2018-10-11T06:59:28.017Z,22.39
2018-10-11T07:00:28.885Z,22.64
2018-10-11T07:01:28.979Z,22.86
2018-10-11T07:02:28.910Z,23.20
2018-10-11T07:03:27.974Z,23.53
2018-10-11T07:04:28.030Z,23.85
2018-10-11T07:05:28.881Z,24.42
2018-10-11T07:06:29.015Z,24.83
2018-10-11T07:07:28.886Z,25.30
2018-10-11T07:08:28.064Z,25.70
2018-10-11T07:09:28.855Z,25.91
2018-10-11T07:10:30.014Z,26.35
2018-10-11T07:11:28.888Z,26.62
2018-10-11T07:12:28.927Z,26.91
2018-10-11T07:13:28.930Z,27.27
2018-10-11T07:14:27.873Z,27.39
2018-10-11T07:15:27.888Z,27.72
2018-10-11T07:16:27.830Z,27.88
2018-10-11T07:17:27.820Z,28.07
2018-10-11T07:18:27.818Z,28.22
2018-10-11T07:19:27.938Z,28.48
2018-10-11T07:20:27.881Z,28.58
2018-10-11T07:21:27.780Z,28.73
2018-10-11T07:22:27.777Z,28.83
2018-10-11T07:23:27.775Z,28.95
2018-10-11T07:24:28.355Z,28.93
2018-10-11T07:25:28.447Z,29.12
2018-10-11T07:26:28.355Z,29.23
2018-10-11T07:27:28.354Z,29.36
2018-10-11T07:28:28.497Z,29.39
2018-10-11T07:29:27.728Z,29.41
2018-10-11T07:30:27.885Z,29.61
2018-10-11T07:31:28.362Z,29.63
2018-10-11T07:32:28.351Z,29.60
2018-10-11T07:33:28.358Z,29.68
2018-10-11T07:34:28.394Z,29.53
2018-10-11T07:35:28.152Z,29.28
2018-10-11T07:36:28.452Z,29.18
2018-10-11T07:37:28.459Z,28.73
2018-10-11T07:38:28.389Z,28.34
2018-10-11T07:39:28.394Z,28.11
2018-10-11T07:40:28.555Z,27.85
2018-10-11T07:41:28.393Z,27.44
2018-10-11T07:42:28.351Z,27.27
2018-10-11T07:43:27.595Z,26.92
2018-10-11T07:44:27.681Z,26.62
2018-10-11T07:45:28.532Z,26.21
2018-10-11T07:46:28.390Z,25.87
2018-10-11T07:47:28.573Z,25.65
2018-10-11T07:48:30.402Z,25.54
2018-10-11T07:49:28.460Z,25.20
2018-10-11T07:50:28.644Z,25.10
2018-10-11T07:51:28.396Z,24.99
2018-10-11T07:52:28.367Z,24.85
2018-10-11T07:53:28.360Z,24.87
2018-10-11T07:54:27.454Z,24.69
2018-10-11T07:55:28.355Z,24.67
2018-10-11T07:56:28.376Z,24.60
2018-10-11T07:57:28.378Z,24.42
2018-10-11T07:58:27.474Z,24.47
2018-10-11T07:59:27.452Z,24.34
2018-10-11T08:00:27.532Z,24.34
2018-10-11T08:01:27.894Z,24.27
2018-10-11T08:02:27.374Z,24.27
2018-10-11T08:03:27.471Z,24.24
2018-10-11T08:04:27.530Z,24.25
2018-10-11T08:05:27.343Z,24.28
2018-10-11T08:06:27.400Z,24.22
2018-10-11T08:07:27.574Z,24.15
2018-10-11T08:08:27.413Z,24.10
2018-10-11T08:09:27.303Z,24.15
2018-10-11T08:10:27.409Z,24.15
2018-10-11T08:11:27.617Z,24.05
2018-10-11T08:12:27.268Z,24.10
2018-10-11T08:13:27.358Z,24.03
2018-10-11T08:14:27.247Z,23.98
2018-10-11T08:15:27.230Z,24.08
2018-10-11T08:16:27.585Z,24.06
2018-10-11T08:17:29.067Z,24.02
2018-10-11T08:18:27.212Z,24.02
2018-10-11T08:19:28.033Z,23.97
2018-10-11T08:20:27.879Z,23.90
2018-10-11T08:21:27.926Z,23.91
2018-10-11T08:22:27.861Z,23.94
2018-10-11T08:23:27.240Z,23.90
2018-10-11T08:24:27.164Z,23.98
2018-10-11T08:25:28.353Z,23.93
2018-10-11T08:26:27.820Z,23.93
2018-10-11T08:27:27.919Z,23.91
2018-10-11T08:28:27.861Z,23.88
2018-10-11T08:29:27.862Z,23.90
2018-10-11T08:30:27.860Z,23.94
2018-10-11T08:31:27.904Z,23.88
2018-10-11T08:32:28.144Z,23.93
2018-10-11T08:33:28.099Z,23.90
2018-10-11T08:34:27.909Z,23.88
2018-10-11T08:35:27.036Z,23.93
2018-10-11T08:36:27.889Z,23.94
2018-10-11T08:37:27.933Z,23.90
2018-10-11T08:38:27.978Z,23.98
2018-10-11T08:39:27.865Z,23.95
2018-10-11T08:40:27.875Z,24.02
2018-10-11T08:41:27.890Z,24.02
2018-10-11T08:42:29.956Z,23.95
2018-10-11T08:43:27.906Z,24.02
2018-10-11T08:44:27.886Z,24.06
2018-10-11T08:45:27.859Z,24.03
2018-10-11T08:46:27.383Z,23.98
2018-10-11T08:47:26.911Z,24.02
2018-10-11T08:48:27.858Z,24.02
2018-10-11T08:49:27.868Z,23.98
2018-10-11T08:50:27.605Z,24.08
2018-10-11T08:51:28.379Z,23.98
2018-10-11T08:52:26.829Z,24.12
2018-10-11T08:53:29.417Z,24.02
2018-10-11T08:54:27.359Z,24.08
2018-10-11T08:55:27.561Z,24.15
2018-10-11T08:56:27.408Z,24.10
2018-10-11T08:57:29.418Z,24.02
2018-10-11T08:58:27.411Z,24.03
2018-10-11T08:59:26.889Z,24.09
2018-10-11T09:00:27.554Z,24.10
2018-10-11T09:01:27.383Z,24.15
2018-10-11T09:02:27.366Z,24.15
2018-10-11T09:03:27.458Z,24.16
2018-10-11T09:04:27.373Z,24.15
2018-10-11T09:05:26.775Z,24.24
2018-10-11T09:06:27.380Z,24.12
2018-10-11T09:07:26.674Z,24.25
2018-10-11T09:08:27.482Z,24.25
2018-10-11T09:09:27.407Z,24.28
2018-10-11T09:10:37.862Z,24.30
2018-10-11T09:11:26.953Z,24.22
2018-10-11T09:12:26.747Z,24.27
2018-10-11T09:13:27.447Z,24.27
2018-10-11T09:14:27.497Z,24.30
2018-10-11T09:15:27.392Z,24.31
2018-10-11T09:16:28.384Z,24.22
2018-10-11T09:17:29.437Z,24.31
2018-10-11T09:18:27.493Z,24.27
2018-10-11T09:19:27.366Z,24.28
2018-10-11T09:20:27.362Z,24.27
2018-10-11T09:21:27.396Z,24.27
2018-10-11T09:22:27.430Z,24.18
2018-10-11T09:23:29.494Z,24.35
2018-10-11T09:24:27.365Z,24.27
2018-10-11T09:25:27.430Z,24.34
2018-10-11T09:26:27.401Z,24.31
2018-10-11T09:27:27.364Z,24.25
2018-10-11T09:28:27.392Z,24.22
2018-10-11T09:29:27.370Z,24.21
2018-10-11T09:30:27.529Z,24.16
2018-10-11T09:31:27.392Z,24.12
2018-10-11T09:32:26.446Z,24.00
2018-10-11T09:33:27.447Z,23.85
2018-10-11T09:34:27.456Z,23.60
2018-10-11T09:35:27.401Z,23.53
2018-10-11T09:36:26.966Z,23.35
2018-10-11T09:37:26.365Z,23.25
2018-10-11T09:38:26.901Z,23.19
2018-10-11T09:39:26.873Z,23.25
2018-10-11T09:40:26.940Z,23.23
2018-10-11T09:41:26.905Z,23.28
2018-10-11T09:42:26.890Z,23.38
2018-10-11T09:43:26.862Z,23.38
2018-10-11T09:44:26.870Z,23.42
2018-10-11T09:45:27.033Z,23.50
2018-10-11T09:46:26.888Z,23.50
2018-10-11T09:47:26.464Z,23.60
2018-10-11T09:48:26.252Z,23.55
2018-10-11T09:49:26.336Z,23.53
2018-10-11T09:50:26.228Z,23.54
2018-10-11T09:51:27.475Z,23.47
2018-10-11T09:52:26.200Z,23.53
2018-10-11T09:53:26.866Z,23.54
2018-10-11T09:54:26.917Z,23.57
2018-10-11T09:55:26.885Z,23.65
2018-10-11T09:56:26.978Z,23.54
2018-10-11T09:57:26.973Z,23.68
2018-10-11T09:58:26.913Z,23.69
2018-10-11T09:59:29.521Z,23.66
2018-10-11T10:00:26.862Z,23.63
2018-10-11T10:01:26.953Z,23.80
2018-10-11T10:02:26.928Z,23.75
2018-10-11T10:03:26.930Z,23.79
2018-10-11T10:04:26.862Z,23.85
2018-10-11T10:05:26.878Z,23.85
2018-10-11T10:06:26.040Z,23.87
2018-10-11T10:07:27.934Z,23.95
2018-10-11T10:08:26.924Z,23.87
2018-10-11T10:09:27.123Z,23.90
2018-10-11T10:10:25.867Z,23.88
2018-10-11T10:11:26.913Z,24.03
2018-10-11T10:12:26.880Z,23.91
2018-10-11T10:13:26.869Z,23.93
2018-10-11T10:14:26.867Z,23.87
2018-10-11T10:15:28.873Z,23.91
2018-10-11T10:16:29.081Z,23.91
2018-10-11T10:17:27.043Z,23.83
2018-10-11T10:18:27.001Z,23.85
2018-10-11T10:19:26.865Z,23.75
2018-10-11T10:20:26.891Z,23.76
2018-10-11T10:21:27.409Z,23.66
2018-10-11T10:22:26.390Z,23.58
2018-10-11T10:23:26.363Z,23.54
2018-10-11T10:24:26.368Z,23.61
2018-10-11T10:25:26.374Z,23.65
2018-10-11T10:26:26.364Z,23.61
2018-10-11T10:27:27.472Z,23.63
2018-10-11T10:28:26.363Z,23.72
2018-10-11T10:29:26.364Z,23.69
2018-10-11T10:30:26.444Z,23.76
2018-10-11T10:31:26.368Z,23.80
2018-10-11T10:32:26.390Z,23.87
2018-10-11T10:33:26.380Z,23.93
2018-10-11T10:34:25.776Z,23.93
2018-10-11T10:35:26.482Z,23.98
2018-10-11T10:36:26.386Z,24.02
2018-10-11T10:37:25.720Z,24.13
2018-10-11T10:38:26.364Z,24.10
2018-10-11T10:39:26.399Z,24.12
2018-10-11T10:40:26.550Z,24.22
2018-10-11T10:41:28.473Z,24.30
2018-10-11T10:42:26.685Z,24.15
2018-10-11T10:43:26.367Z,24.27
2018-10-11T10:44:26.376Z,24.24
2018-10-11T10:45:25.628Z,24.30
2018-10-11T10:46:25.689Z,24.32
2018-10-11T10:47:26.457Z,24.37
2018-10-11T10:48:26.426Z,24.43
2018-10-11T10:49:25.624Z,24.37
2018-10-11T10:50:26.373Z,24.37
2018-10-11T10:51:26.366Z,24.47
2018-10-11T10:52:26.628Z,24.45
2018-10-11T10:53:26.408Z,24.40
2018-10-11T10:54:26.541Z,24.47
2018-10-11T10:55:26.372Z,24.35
2018-10-11T10:56:26.652Z,24.37
2018-10-11T10:57:26.376Z,24.35
2018-10-11T10:58:26.531Z,24.31
2018-10-11T10:59:26.365Z,24.42
2018-10-11T11:00:25.466Z,24.32
2018-10-11T11:01:26.508Z,24.32
2018-10-11T11:02:26.377Z,24.47
2018-10-11T11:03:25.505Z,24.46
2018-10-11T11:04:26.369Z,24.46
2018-10-11T11:05:25.529Z,24.49
2018-10-11T11:06:26.510Z,24.55
2018-10-11T11:07:26.418Z,24.55
2018-10-11T11:08:25.607Z,24.67
2018-10-11T11:09:26.397Z,24.69
2018-10-11T11:10:25.899Z,24.80
2018-10-11T11:11:25.876Z,24.83
2018-10-11T11:12:26.005Z,24.87
2018-10-11T11:13:25.877Z,24.90
2018-10-11T11:14:25.425Z,24.98
2018-10-11T11:15:25.301Z,25.03
2018-10-11T11:16:25.362Z,25.02
2018-10-11T11:17:25.506Z,24.98
2018-10-11T11:18:25.934Z,25.00
2018-10-11T11:19:25.874Z,25.10
2018-10-11T11:20:25.880Z,25.08
2018-10-11T11:21:26.008Z,25.21
2018-10-11T11:22:26.073Z,25.20
2018-10-11T11:23:25.225Z,25.21
2018-10-11T11:24:25.871Z,25.17
2018-10-11T11:25:25.201Z,25.35
2018-10-11T11:26:25.873Z,25.35
2018-10-11T11:27:26.167Z,25.40
2018-10-11T11:28:25.264Z,25.28
2018-10-11T11:29:25.236Z,25.33
2018-10-11T11:30:25.878Z,25.30
2018-10-11T11:31:25.872Z,25.24
2018-10-11T11:32:26.001Z,25.28
2018-10-11T11:33:25.923Z,25.39
2018-10-11T11:34:25.873Z,25.45
2018-10-11T11:35:25.926Z,25.47
2018-10-11T11:36:25.238Z,25.40
2018-10-11T11:37:26.158Z,25.47
2018-10-11T11:38:27.901Z,25.36
2018-10-11T11:39:25.058Z,25.45
2018-10-11T11:40:25.964Z,25.47
2018-10-11T11:41:27.947Z,25.42
2018-10-11T11:42:26.011Z,25.39
2018-10-11T11:43:25.868Z,25.43
2018-10-11T11:44:25.873Z,25.45
2018-10-11T11:45:26.004Z,25.38
2018-10-11T11:46:25.959Z,25.50
2018-10-11T11:47:26.062Z,25.51
2018-10-11T11:48:25.017Z,25.46
2018-10-11T11:49:24.937Z,25.51
2018-10-11T11:50:25.917Z,25.55
2018-10-11T11:51:26.093Z,25.54
2018-10-11T11:52:25.625Z,25.51
2018-10-11T11:53:24.969Z,25.46
2018-10-11T11:54:25.867Z,25.54
2018-10-11T11:55:25.420Z,25.54
2018-10-11T11:56:24.909Z,25.54
2018-10-11T11:57:24.873Z,25.51
2018-10-11T11:58:25.507Z,25.51
2018-10-11T11:59:25.377Z,25.57
2018-10-11T12:00:24.821Z,25.57
2018-10-11T12:01:25.139Z,25.54
2018-10-11T12:02:25.393Z,25.50
2018-10-11T12:03:25.496Z,25.55
2018-10-11T12:04:24.886Z,25.52
2018-10-11T12:05:25.478Z,25.51
2018-10-11T12:06:25.391Z,25.47
2018-10-11T12:07:25.370Z,25.54
2018-10-11T12:08:25.517Z,25.54
2018-10-11T12:09:24.738Z,25.57
2018-10-11T12:10:24.777Z,25.60
2018-10-11T12:11:25.452Z,25.55
2018-10-11T12:12:25.374Z,25.61
2018-10-11T12:13:25.497Z,25.61
2018-10-11T12:14:25.383Z,25.61
2018-10-11T12:15:25.594Z,25.65
2018-10-11T12:16:27.461Z,25.70
2018-10-11T12:17:25.431Z,25.64
2018-10-11T12:18:25.502Z,25.75
2018-10-11T12:19:25.453Z,25.64
2018-10-11T12:20:25.487Z,25.75
2018-10-11T12:21:24.588Z,25.70
2018-10-11T12:22:25.385Z,25.67
2018-10-11T12:23:25.526Z,25.69
2018-10-11T12:24:25.417Z,25.70
2018-10-11T12:25:25.382Z,25.76
2018-10-11T12:26:25.382Z,25.69
2018-10-11T12:27:25.538Z,25.72
2018-10-11T12:28:25.631Z,25.70
2018-10-11T12:29:24.590Z,25.75
2018-10-11T12:30:25.521Z,25.72
2018-10-11T12:31:25.370Z,25.70
2018-10-11T12:32:24.575Z,25.77
2018-10-11T12:33:25.499Z,25.67
2018-10-11T12:34:25.378Z,25.70
2018-10-11T12:35:25.478Z,25.72
2018-10-11T12:36:25.407Z,25.69
2018-10-11T12:37:24.529Z,25.69
2018-10-11T12:38:25.510Z,25.72
2018-10-11T12:39:25.396Z,25.73
2018-10-11T12:40:25.387Z,25.72
2018-10-11T12:41:24.885Z,25.75
2018-10-11T12:42:24.914Z,25.76
2018-10-11T12:43:24.541Z,25.73
2018-10-11T12:44:24.925Z,25.77
2018-10-11T12:45:24.997Z,25.72
2018-10-11T12:46:24.933Z,25.75
2018-10-11T12:47:24.893Z,25.67
2018-10-11T12:48:24.885Z,25.72
2018-10-11T12:49:25.152Z,25.75
2018-10-11T12:50:24.881Z,25.80
2018-10-11T12:51:26.956Z,25.77
2018-10-11T12:52:24.876Z,25.70